createdAt,value
2023-05-14T00:00:25.064Z,9.30
2023-05-14T00:01:24.940Z,10.40
2023-05-14T00:02:24.942Z,12.10
2023-05-14T00:03:25.003Z,10.60
2023-05-14T00:04:24.904Z,9.20
2023-05-14T00:05:24.900Z,7.90
2023-05-14T00:06:24.852Z,8.80
2023-05-14T00:07:24.857Z,7.80
2023-05-14T00:08:24.835Z,9.40
2023-05-14T00:09:24.818Z,10.10
2023-05-14T00:10:25.060Z,8.20
2023-05-14T00:11:24.792Z,9.10
2023-05-14T00:12:24.783Z,7.80
2023-05-14T00:13:24.793Z,11.00
2023-05-14T00:14:24.765Z,9.80
2023-05-14T00:15:24.739Z,8.70
2023-05-14T00:16:24.929Z,7.70
2023-05-14T00:17:24.778Z,8.70
2023-05-14T00:18:24.740Z,11.00
2023-05-14T00:19:24.743Z,8.70
2023-05-14T00:20:24.961Z,11.80
2023-05-14T00:21:24.679Z,7.80
2023-05-14T00:22:24.671Z,8.10
2023-05-14T00:23:24.684Z,8.40
2023-05-14T00:24:24.646Z,11.70
2023-05-14T00:25:24.632Z,11.80
2023-05-14T00:26:24.629Z,10.10
2023-05-14T00:27:24.610Z,13.90
2023-05-14T00:28:24.631Z,9.20
2023-05-14T00:29:24.600Z,10.10
2023-05-14T00:30:24.798Z,12.60
2023-05-14T00:31:24.614Z,10.00
2023-05-14T00:32:24.578Z,9.80
2023-05-14T00:33:24.576Z,9.90
2023-05-14T00:34:24.560Z,10.30
2023-05-14T00:35:24.539Z,9.40
2023-05-14T00:36:24.515Z,8.40
2023-05-14T00:37:24.499Z,10.60
2023-05-14T00:38:24.498Z,12.10
2023-05-14T00:39:24.476Z,12.50
2023-05-14T00:40:24.734Z,11.10
2023-05-14T00:41:24.456Z,8.90
2023-05-14T00:42:24.452Z,10.70
2023-05-14T00:43:24.442Z,10.30
2023-05-14T00:44:24.427Z,10.40
2023-05-14T00:45:24.420Z,8.90
2023-05-14T00:46:24.447Z,10.30
2023-05-14T00:47:24.406Z,11.60
2023-05-14T00:48:24.387Z,10.20
2023-05-14T00:49:24.379Z,11.20
2023-05-14T00:50:24.603Z,11.40
2023-05-14T00:51:24.346Z,9.60
2023-05-14T00:52:24.353Z,9.40
2023-05-14T00:53:24.335Z,10.40
2023-05-14T00:54:24.303Z,9.20
2023-05-14T00:55:24.305Z,13.10
2023-05-14T00:56:24.310Z,12.60
2023-05-14T00:57:24.289Z,9.10
2023-05-14T00:58:24.266Z,13.30
2023-05-14T00:59:24.272Z,8.00
2023-05-14T01:00:24.436Z,10.00
2023-05-14T01:01:24.296Z,9.10
2023-05-14T01:02:24.311Z,7.90
2023-05-14T01:03:24.290Z,12.70
2023-05-14T01:04:24.202Z,7.60
2023-05-14T01:05:24.208Z,9.60
2023-05-14T01:06:24.178Z,9.90
2023-05-14T01:07:24.190Z,9.20
2023-05-14T01:08:24.149Z,13.30
2023-05-14T01:09:24.141Z,10.30
2023-05-14T01:10:24.486Z,8.90
2023-05-14T01:11:24.130Z,9.90
2023-05-14T01:12:24.122Z,9.80
2023-05-14T01:13:24.107Z,14.00
2023-05-14T01:14:24.095Z,8.30
2023-05-14T01:15:24.082Z,10.10
2023-05-14T01:16:24.122Z,8.80
2023-05-14T01:17:24.122Z,8.60
2023-05-14T01:18:24.138Z,9.00
2023-05-14T01:19:24.038Z,11.30
2023-05-14T01:20:26.789Z,10.30
2023-05-14T01:21:24.004Z,8.60
2023-05-14T01:22:23.997Z,10.00
2023-05-14T01:23:24.017Z,9.00
2023-05-14T01:24:23.991Z,9.70
2023-05-14T01:25:23.963Z,9.20
2023-05-14T01:26:23.954Z,9.70
2023-05-14T01:27:23.945Z,11.40
2023-05-14T01:28:23.962Z,10.00
2023-05-14T01:29:23.916Z,7.20
2023-05-14T01:30:24.166Z,8.90
2023-05-14T01:31:23.906Z,13.30
2023-05-14T01:32:25.044Z,10.00
2023-05-14T01:33:23.910Z,9.60
2023-05-14T01:34:24.468Z,7.00
2023-05-14T01:35:23.863Z,10.50
2023-05-14T01:36:23.856Z,14.50
2023-05-14T01:37:23.852Z,8.90
2023-05-14T01:38:23.869Z,12.50
2023-05-14T01:39:23.809Z,10.70
2023-05-14T01:40:24.082Z,8.80
2023-05-14T01:41:23.785Z,13.60
2023-05-14T01:42:23.780Z,10.00
2023-05-14T01:43:23.803Z,11.10
2023-05-14T01:44:23.784Z,8.80
2023-05-14T01:45:23.754Z,8.70
2023-05-14T01:46:23.781Z,10.50
2023-05-14T01:47:23.741Z,7.60
2023-05-14T01:48:23.706Z,8.60
2023-05-14T01:49:23.729Z,8.60
2023-05-14T01:50:23.908Z,8.70
2023-05-14T01:51:23.678Z,10.20
2023-05-14T01:52:24.453Z,7.90
2023-05-14T01:53:23.721Z,8.30
2023-05-14T01:54:24.444Z,9.00
2023-05-14T01:55:23.629Z,9.00
2023-05-14T01:56:23.638Z,7.90
2023-05-14T01:57:23.649Z,9.10
2023-05-14T01:58:26.391Z,10.00
2023-05-14T01:59:23.581Z,6.30
2023-05-14T02:00:23.988Z,11.30
2023-05-14T02:01:23.613Z,8.40
2023-05-14T02:02:24.522Z,7.10
2023-05-14T02:03:24.245Z,7.50
2023-05-14T02:04:24.769Z,9.40
2023-05-14T02:05:24.887Z,7.30
2023-05-14T02:06:25.445Z,8.60
2023-05-14T02:07:24.447Z,9.10
2023-05-14T02:08:24.276Z,7.50
2023-05-14T02:09:23.476Z,8.40
2023-05-14T02:10:23.845Z,9.30
2023-05-14T02:11:24.894Z,5.10
2023-05-14T02:12:26.045Z,9.60
2023-05-14T02:13:23.953Z,9.70
2023-05-14T02:14:23.946Z,8.50
2023-05-14T02:15:23.952Z,13.00
2023-05-14T02:16:23.453Z,7.40
2023-05-14T02:17:24.896Z,7.00
2023-05-14T02:18:23.950Z,9.60
2023-05-14T02:19:23.420Z,7.20
2023-05-14T02:20:23.978Z,7.50
2023-05-14T02:21:24.260Z,8.00
2023-05-14T02:22:23.362Z,7.60
2023-05-14T02:23:34.180Z,8.90
2023-05-14T02:24:23.322Z,6.80
2023-05-14T02:25:24.954Z,6.80
2023-05-14T02:26:23.970Z,6.70
2023-05-14T02:27:23.394Z,6.50
2023-05-14T02:28:23.264Z,9.90
2023-05-14T02:29:23.947Z,7.60
2023-05-14T02:30:24.152Z,10.30
2023-05-14T02:31:23.270Z,8.60
2023-05-14T02:32:23.253Z,7.50
2023-05-14T02:33:23.420Z,7.90
2023-05-14T02:34:23.190Z,8.50
2023-05-14T02:35:23.181Z,13.00
2023-05-14T02:36:23.167Z,8.90
2023-05-14T02:37:23.153Z,7.70
2023-05-14T02:38:23.153Z,8.90
2023-05-14T02:39:23.160Z,9.70
2023-05-14T02:40:23.365Z,9.40
2023-05-14T02:41:23.122Z,8.50
2023-05-14T02:42:23.125Z,10.60
2023-05-14T02:43:23.091Z,11.60
2023-05-14T02:44:23.074Z,10.60
2023-05-14T02:45:23.083Z,10.10
2023-05-14T02:46:23.095Z,22.80
2023-05-14T02:47:23.074Z,11.90
2023-05-14T02:48:23.054Z,8.90
2023-05-14T02:49:23.033Z,10.70
2023-05-14T02:50:23.239Z,10.80
2023-05-14T02:51:23.011Z,9.10
2023-05-14T02:52:23.014Z,11.80
2023-05-14T02:53:22.991Z,9.60
2023-05-14T02:54:22.980Z,13.00
2023-05-14T02:55:22.982Z,11.30
2023-05-14T02:56:22.942Z,9.00
2023-05-14T02:57:22.954Z,12.20
2023-05-14T02:58:25.912Z,13.40
2023-05-14T02:59:22.918Z,15.00
2023-05-14T03:00:23.080Z,14.00
2023-05-14T03:01:22.933Z,11.70
2023-05-14T03:02:22.908Z,13.00
2023-05-14T03:03:22.912Z,14.00
2023-05-14T03:04:22.873Z,11.80
2023-05-14T03:05:22.860Z,12.00
2023-05-14T03:06:22.842Z,9.60
2023-05-14T03:07:22.822Z,10.60
2023-05-14T03:08:22.827Z,11.10
2023-05-14T03:09:22.807Z,10.20
2023-05-14T03:10:23.051Z,11.10
2023-05-14T03:11:22.801Z,10.40
2023-05-14T03:12:22.792Z,11.60
2023-05-14T03:13:22.758Z,11.00
2023-05-14T03:14:22.762Z,8.70
2023-05-14T03:15:22.767Z,18.00
2023-05-14T03:16:22.834Z,11.80
2023-05-14T03:17:22.767Z,10.50
2023-05-14T03:18:22.706Z,10.00
2023-05-14T03:19:22.695Z,14.40
2023-05-14T03:20:22.922Z,11.60
2023-05-14T03:21:22.695Z,11.20
2023-05-14T03:22:22.672Z,11.80
2023-05-14T03:23:22.650Z,13.30
2023-05-14T03:24:22.647Z,10.20
2023-05-14T03:25:22.641Z,11.30
2023-05-14T03:26:22.644Z,13.30
2023-05-14T03:27:22.600Z,12.90
2023-05-14T03:28:22.612Z,12.90
2023-05-14T03:29:22.618Z,9.40
2023-05-14T03:30:22.836Z,11.00
2023-05-14T03:31:22.706Z,13.40
2023-05-14T03:32:22.666Z,11.90
2023-05-14T03:33:22.545Z,16.30
2023-05-14T03:34:22.545Z,11.90
2023-05-14T03:35:22.525Z,9.20
2023-05-14T03:36:22.530Z,11.50
2023-05-14T03:37:22.496Z,10.80
2023-05-14T03:38:22.488Z,13.60
2023-05-14T03:39:22.470Z,12.90
2023-05-14T03:40:22.598Z,12.20
2023-05-14T03:41:22.465Z,11.30
2023-05-14T03:42:22.463Z,9.80
2023-05-14T03:43:22.429Z,14.20
2023-05-14T03:44:22.411Z,13.30
2023-05-14T03:45:22.425Z,12.10
2023-05-14T03:46:22.401Z,13.20
2023-05-14T03:47:22.437Z,12.40
2023-05-14T03:48:22.411Z,9.80
2023-05-14T03:49:22.380Z,11.10
2023-05-14T03:50:28.912Z,11.00
2023-05-14T03:51:22.340Z,11.50
2023-05-14T03:52:22.329Z,10.40
2023-05-14T03:53:22.346Z,12.80
2023-05-14T03:54:22.308Z,11.70
2023-05-14T03:55:22.305Z,10.70
2023-05-14T03:56:22.287Z,14.00
2023-05-14T03:57:22.298Z,12.10
2023-05-14T03:58:22.287Z,10.70
2023-05-14T03:59:22.259Z,11.10
2023-05-14T04:00:22.479Z,11.30
2023-05-14T04:01:22.239Z,11.60
2023-05-14T04:02:22.255Z,12.20
2023-05-14T04:03:22.283Z,11.40
2023-05-14T04:04:22.228Z,10.00
2023-05-14T04:05:22.200Z,10.50
2023-05-14T04:06:22.183Z,13.30
2023-05-14T04:07:22.172Z,9.40
2023-05-14T04:08:22.171Z,9.60
2023-05-14T04:09:22.176Z,10.60
2023-05-14T04:10:22.482Z,12.80
2023-05-14T04:11:22.131Z,10.00
2023-05-14T04:12:22.117Z,13.10
2023-05-14T04:13:22.131Z,12.70
2023-05-14T04:14:22.106Z,11.40
2023-05-14T04:15:22.108Z,10.80
2023-05-14T04:16:22.090Z,13.20
2023-05-14T04:17:22.070Z,15.00
2023-05-14T04:18:22.056Z,10.60
2023-05-14T04:19:22.082Z,11.10
2023-05-14T04:20:22.248Z,10.40
2023-05-14T04:21:22.025Z,10.40
2023-05-14T04:22:22.006Z,13.20
2023-05-14T04:23:21.993Z,13.30
2023-05-14T04:24:22.016Z,14.10
2023-05-14T04:25:21.985Z,11.00
2023-05-14T04:26:21.962Z,11.20
2023-05-14T04:27:21.962Z,11.20
2023-05-14T04:28:21.949Z,11.20
2023-05-14T04:29:21.974Z,9.90
2023-05-14T04:30:22.049Z,10.90
2023-05-14T04:31:21.941Z,9.30
2023-05-14T04:32:21.940Z,10.00
2023-05-14T04:33:21.879Z,8.00
2023-05-14T04:34:21.872Z,10.30
2023-05-14T04:35:24.720Z,12.50
2023-05-14T04:36:21.846Z,7.30
2023-05-14T04:37:21.864Z,8.30
2023-05-14T04:38:21.824Z,10.90
2023-05-14T04:39:21.814Z,8.50
2023-05-14T04:40:22.019Z,7.70
2023-05-14T04:41:21.802Z,7.80
2023-05-14T04:42:21.785Z,7.80
2023-05-14T04:43:21.797Z,8.40
2023-05-14T04:44:21.764Z,10.30
2023-05-14T04:45:21.777Z,9.10
2023-05-14T04:46:21.796Z,10.40
2023-05-14T04:47:21.756Z,8.50
2023-05-14T04:48:21.737Z,9.90
2023-05-14T04:49:21.725Z,10.60
2023-05-14T04:50:22.050Z,9.10
2023-05-14T04:51:21.701Z,8.40
2023-05-14T04:52:21.673Z,8.80
2023-05-14T04:53:21.663Z,8.00
2023-05-14T04:54:21.662Z,7.10
2023-05-14T04:55:21.640Z,6.70
2023-05-14T04:56:21.697Z,9.00
2023-05-14T04:57:21.617Z,11.70
2023-05-14T04:58:21.608Z,8.00
2023-05-14T04:59:21.596Z,11.50
2023-05-14T05:00:22.192Z,7.10
2023-05-14T05:01:21.591Z,8.10
2023-05-14T05:02:21.560Z,10.40
2023-05-14T05:03:21.672Z,10.60
2023-05-14T05:04:21.553Z,9.00
2023-05-14T05:05:21.577Z,11.60
2023-05-14T05:06:21.524Z,7.60
2023-05-14T05:07:21.536Z,6.40
2023-05-14T05:08:21.552Z,7.90
2023-05-14T05:09:21.502Z,6.40
2023-05-14T05:10:21.676Z,10.40
2023-05-14T05:11:21.504Z,10.00
2023-05-14T05:12:21.495Z,8.20
2023-05-14T05:13:21.483Z,8.90
2023-05-14T05:14:21.430Z,10.10
2023-05-14T05:15:21.459Z,9.80
2023-05-14T05:16:21.514Z,8.70
2023-05-14T05:17:21.431Z,10.60
2023-05-14T05:18:21.469Z,9.30
2023-05-14T05:19:29.051Z,8.10
2023-05-14T05:20:21.715Z,9.50
2023-05-14T05:21:21.430Z,10.00
2023-05-14T05:22:21.517Z,9.00
2023-05-14T05:23:21.429Z,8.30
2023-05-14T05:24:21.485Z,9.80
2023-05-14T05:25:21.483Z,8.40
2023-05-14T05:26:22.017Z,8.00
2023-05-14T05:27:21.408Z,14.30
2023-05-14T05:28:21.418Z,11.20
2023-05-14T05:29:21.455Z,10.50
2023-05-14T05:30:21.363Z,7.20
2023-05-14T05:31:21.432Z,11.60
2023-05-14T05:32:21.367Z,9.10
2023-05-14T05:33:21.386Z,9.80
2023-05-14T05:34:21.316Z,11.30
2023-05-14T05:35:21.365Z,7.30
2023-05-14T05:36:21.185Z,11.50
2023-05-14T05:37:21.337Z,7.30
2023-05-14T05:38:21.699Z,7.00
2023-05-14T05:39:21.555Z,12.00
2023-05-14T05:40:21.214Z,9.40
2023-05-14T05:41:22.381Z,10.10
2023-05-14T05:42:22.232Z,10.00
2023-05-14T05:43:24.196Z,7.90
2023-05-14T05:44:24.510Z,8.60
2023-05-14T05:45:22.494Z,8.40
2023-05-14T05:46:22.729Z,9.50
2023-05-14T05:47:21.689Z,10.30
2023-05-14T05:48:21.706Z,9.10
2023-05-14T05:49:23.233Z,8.50
2023-05-14T05:50:23.576Z,7.00
2023-05-14T05:51:23.374Z,11.40
2023-05-14T05:52:22.461Z,10.90
2023-05-14T05:53:22.640Z,9.90
2023-05-14T05:54:23.132Z,9.30
2023-05-14T05:55:27.134Z,9.80
2023-05-14T05:56:21.038Z,9.20
2023-05-14T05:57:21.847Z,9.00
2023-05-14T05:58:26.274Z,8.10
2023-05-14T05:59:22.540Z,11.20
2023-05-14T06:00:22.937Z,8.80
2023-05-14T06:01:22.664Z,11.30
2023-05-14T06:02:20.974Z,7.40
2023-05-14T06:03:20.954Z,8.70
2023-05-14T06:04:20.874Z,6.90
2023-05-14T06:05:20.949Z,9.60
2023-05-14T06:06:20.858Z,8.10
2023-05-14T06:07:20.845Z,8.60
2023-05-14T06:08:20.836Z,7.90
2023-05-14T06:09:20.816Z,7.60
2023-05-14T06:10:20.827Z,6.20
2023-05-14T06:11:20.851Z,10.20
2023-05-14T06:12:20.796Z,5.30
2023-05-14T06:13:20.791Z,7.10
2023-05-14T06:14:20.770Z,7.70
2023-05-14T06:15:20.787Z,7.60
2023-05-14T06:16:20.788Z,7.60
2023-05-14T06:17:20.778Z,7.80
2023-05-14T06:18:20.723Z,8.20
2023-05-14T06:19:20.766Z,8.10
2023-05-14T06:20:20.738Z,9.20
2023-05-14T06:21:20.712Z,7.80
2023-05-14T06:22:20.672Z,10.90
2023-05-14T06:23:20.669Z,6.10
2023-05-14T06:24:20.664Z,7.60
2023-05-14T06:25:20.687Z,8.50
2023-05-14T06:26:20.675Z,8.10
2023-05-14T06:27:20.632Z,6.90
2023-05-14T06:28:20.629Z,8.40
2023-05-14T06:29:20.605Z,6.50
2023-05-14T06:30:20.621Z,4.90
2023-05-14T06:31:20.669Z,5.50
2023-05-14T06:32:20.657Z,6.10
2023-05-14T06:33:20.714Z,5.40
2023-05-14T06:34:20.591Z,7.00
2023-05-14T06:35:20.536Z,8.50
2023-05-14T06:36:20.522Z,7.80
2023-05-14T06:37:20.522Z,7.80
2023-05-14T06:38:20.519Z,5.90
2023-05-14T06:39:20.497Z,5.30
2023-05-14T06:40:20.535Z,5.90
2023-05-14T06:41:20.485Z,8.20
2023-05-14T06:42:20.528Z,4.40
2023-05-14T06:43:20.446Z,6.50
2023-05-14T06:44:20.455Z,5.20
2023-05-14T06:45:20.441Z,7.10
2023-05-14T06:46:20.427Z,5.10
2023-05-14T06:47:20.445Z,5.70
2023-05-14T06:48:20.497Z,7.50
2023-05-14T06:49:20.386Z,5.10
2023-05-14T06:50:20.397Z,7.70
2023-05-14T06:51:20.388Z,7.20
2023-05-14T06:52:20.372Z,5.80
2023-05-14T06:53:20.348Z,5.70
2023-05-14T06:54:20.369Z,5.50
2023-05-14T06:55:20.327Z,5.80
2023-05-14T06:56:20.306Z,8.00
2023-05-14T06:57:20.301Z,5.70
2023-05-14T06:58:20.302Z,5.80
2023-05-14T06:59:20.270Z,4.10
2023-05-14T07:00:20.270Z,6.90
2023-05-14T07:01:20.276Z,5.00
2023-05-14T07:02:20.274Z,5.00
2023-05-14T07:03:20.254Z,5.10
2023-05-14T07:04:20.328Z,7.80
2023-05-14T07:05:20.208Z,6.30
2023-05-14T07:06:20.190Z,4.00
2023-05-14T07:07:20.192Z,5.70
2023-05-14T07:08:20.180Z,4.10
2023-05-14T07:09:20.210Z,6.60
2023-05-14T07:10:20.190Z,5.00
2023-05-14T07:11:20.149Z,6.60
2023-05-14T07:12:20.142Z,3.80
2023-05-14T07:13:20.120Z,5.40
2023-05-14T07:14:20.110Z,4.60
2023-05-14T07:15:20.117Z,8.40
2023-05-14T07:16:20.124Z,4.50
2023-05-14T07:17:20.147Z,5.60
2023-05-14T07:18:20.100Z,7.90
2023-05-14T07:19:20.053Z,5.00
2023-05-14T07:20:20.080Z,4.70
2023-05-14T07:21:20.061Z,3.90
2023-05-14T07:22:20.040Z,5.40
2023-05-14T07:23:20.198Z,7.20
2023-05-14T07:24:19.999Z,4.60
2023-05-14T07:25:19.997Z,8.90
2023-05-14T07:26:19.980Z,4.80
2023-05-14T07:27:19.991Z,5.60
2023-05-14T07:28:19.957Z,5.20
2023-05-14T07:29:19.948Z,3.90
2023-05-14T07:30:19.935Z,4.90
2023-05-14T07:31:19.978Z,4.10
2023-05-14T07:32:19.912Z,5.80
2023-05-14T07:33:19.935Z,7.00
2023-05-14T07:34:19.896Z,4.40
2023-05-14T07:35:19.880Z,4.30
2023-05-14T07:36:19.885Z,5.70
2023-05-14T07:37:20.626Z,3.20
2023-05-14T07:38:19.853Z,6.00
2023-05-14T07:39:19.833Z,5.60
2023-05-14T07:40:19.826Z,4.10
2023-05-14T07:41:19.834Z,4.80
2023-05-14T07:42:28.314Z,5.00
2023-05-14T07:43:19.796Z,7.30
2023-05-14T07:44:19.780Z,4.70
2023-05-14T07:45:19.762Z,4.50
2023-05-14T07:46:19.762Z,4.20
2023-05-14T07:47:19.794Z,5.30
2023-05-14T07:48:19.867Z,5.60
2023-05-14T07:49:19.725Z,5.50
2023-05-14T07:50:19.724Z,3.20
2023-05-14T07:51:19.704Z,3.70
2023-05-14T07:52:19.692Z,3.90
2023-05-14T07:53:19.711Z,4.30
2023-05-14T07:54:19.681Z,5.00
2023-05-14T07:55:19.659Z,3.70
2023-05-14T07:56:19.658Z,3.30
2023-05-14T07:57:19.663Z,4.00
2023-05-14T07:58:19.652Z,4.60
2023-05-14T07:59:19.617Z,3.00
2023-05-14T08:00:19.612Z,4.00
2023-05-14T08:01:19.596Z,3.60
2023-05-14T08:02:19.670Z,4.20
2023-05-14T08:03:19.628Z,5.10
2023-05-14T08:04:19.588Z,3.50
2023-05-14T08:05:19.546Z,3.20
2023-05-14T08:06:19.552Z,3.50
2023-05-14T08:07:19.530Z,2.90
2023-05-14T08:08:19.544Z,3.30
2023-05-14T08:09:19.508Z,3.10
2023-05-14T08:10:19.520Z,2.90
2023-05-14T08:11:19.506Z,4.70
2023-05-14T08:12:19.479Z,6.90
2023-05-14T08:13:19.492Z,4.40
2023-05-14T08:14:19.456Z,4.90
2023-05-14T08:15:19.446Z,3.10
2023-05-14T08:16:19.445Z,5.30
2023-05-14T08:17:19.500Z,4.30
2023-05-14T08:18:19.447Z,3.40
2023-05-14T08:19:19.514Z,2.50
2023-05-14T08:20:19.389Z,6.30
2023-05-14T08:21:19.378Z,4.00
2023-05-14T08:22:19.368Z,3.90
2023-05-14T08:23:19.353Z,3.10
2023-05-14T08:24:19.367Z,4.50
2023-05-14T08:25:19.340Z,3.90
2023-05-14T08:26:19.328Z,3.80
2023-05-14T08:27:19.318Z,3.80
2023-05-14T08:28:19.307Z,7.10
2023-05-14T08:29:19.316Z,3.10
2023-05-14T08:30:19.285Z,3.40
2023-05-14T08:31:19.361Z,4.20
2023-05-14T08:32:23.531Z,3.80
2023-05-14T08:33:19.263Z,3.60
2023-05-14T08:34:19.263Z,3.30
2023-05-14T08:35:19.246Z,4.20
2023-05-14T08:36:19.235Z,3.40
2023-05-14T08:37:19.201Z,2.70
2023-05-14T08:38:19.219Z,3.10
2023-05-14T08:39:19.206Z,3.10
2023-05-14T08:40:19.207Z,2.30
2023-05-14T08:41:19.160Z,2.20
2023-05-14T08:42:19.146Z,2.90
2023-05-14T08:43:19.140Z,2.60
2023-05-14T08:44:19.136Z,2.60
2023-05-14T08:45:19.125Z,2.40
2023-05-14T08:46:19.128Z,3.30
2023-05-14T08:47:19.095Z,3.30
2023-05-14T08:48:19.180Z,2.50
2023-05-14T08:49:19.094Z,3.00
2023-05-14T08:50:21.129Z,2.80
2023-05-14T08:51:19.051Z,4.10
2023-05-14T08:52:19.042Z,3.00
2023-05-14T08:53:19.028Z,2.30
2023-05-14T08:54:19.045Z,1.90
2023-05-14T08:55:19.031Z,2.60
2023-05-14T08:56:19.016Z,3.90
2023-05-14T08:57:19.006Z,4.90
2023-05-14T08:58:18.979Z,2.50
2023-05-14T08:59:18.993Z,2.00
2023-05-14T09:00:18.969Z,1.20
2023-05-14T09:01:18.971Z,2.10
2023-05-14T09:02:18.964Z,1.80
2023-05-14T09:03:18.972Z,2.70
2023-05-14T09:04:19.000Z,3.20
2023-05-14T09:05:18.895Z,2.00
2023-05-14T09:06:18.893Z,1.80
2023-05-14T09:07:18.871Z,3.30
2023-05-14T09:08:18.868Z,1.70
2023-05-14T09:09:18.869Z,5.20
2023-05-14T09:10:18.862Z,2.40
2023-05-14T09:11:18.834Z,1.80
2023-05-14T09:12:18.816Z,4.70
2023-05-14T09:13:18.814Z,3.80
2023-05-14T09:14:18.816Z,1.50
2023-05-14T09:15:18.785Z,2.80
2023-05-14T09:16:18.842Z,1.70
2023-05-14T09:17:18.827Z,2.40
2023-05-14T09:18:18.758Z,2.10
2023-05-14T09:19:18.834Z,2.20
2023-05-14T09:20:18.735Z,3.00
2023-05-14T09:21:18.726Z,2.30
2023-05-14T09:22:18.743Z,2.00
2023-05-14T09:23:18.707Z,2.50
2023-05-14T09:24:18.710Z,2.50
2023-05-14T09:25:18.674Z,1.90
2023-05-14T09:26:18.709Z,2.70
2023-05-14T09:27:18.654Z,2.20
2023-05-14T09:28:18.642Z,2.20
2023-05-14T09:29:18.630Z,3.50
2023-05-14T09:30:18.648Z,2.50
2023-05-14T09:31:18.695Z,3.50
2023-05-14T09:32:18.599Z,2.30
2023-05-14T09:33:18.608Z,2.10
2023-05-14T09:34:18.587Z,2.10
2023-05-14T09:35:18.608Z,1.70
2023-05-14T09:36:18.561Z,3.60
2023-05-14T09:37:18.568Z,2.20
2023-05-14T09:38:18.540Z,1.70
2023-05-14T09:39:18.523Z,4.20
2023-05-14T09:40:18.568Z,1.50
2023-05-14T09:41:18.500Z,1.90
2023-05-14T09:42:18.496Z,3.80
2023-05-14T09:43:18.480Z,1.80
2023-05-14T09:44:18.474Z,2.90
2023-05-14T09:45:18.468Z,1.90
2023-05-14T09:46:18.526Z,4.90
2023-05-14T09:47:18.499Z,2.40
2023-05-14T09:48:18.482Z,2.10
2023-05-14T09:49:18.414Z,3.30
2023-05-14T09:50:25.957Z,2.30
2023-05-14T09:51:18.420Z,2.40
2023-05-14T09:52:18.404Z,3.80
2023-05-14T09:53:19.081Z,2.60
2023-05-14T09:54:18.389Z,2.00
2023-05-14T09:55:18.370Z,1.60
2023-05-14T09:56:18.356Z,2.50
2023-05-14T09:57:18.355Z,1.50
2023-05-14T09:58:18.340Z,2.00
2023-05-14T09:59:18.310Z,2.20
2023-05-14T10:00:18.311Z,2.70
2023-05-14T10:01:18.314Z,1.70
2023-05-14T10:02:18.287Z,2.80
2023-05-14T10:03:19.876Z,2.00
2023-05-14T10:04:18.285Z,1.20
2023-05-14T10:05:18.247Z,1.70
2023-05-14T10:06:18.248Z,1.50
2023-05-14T10:07:18.220Z,1.50
2023-05-14T10:08:18.235Z,1.70
2023-05-14T10:09:18.213Z,2.90
2023-05-14T10:10:18.190Z,1.50
2023-05-14T10:11:18.192Z,2.70
2023-05-14T10:12:18.164Z,1.30
2023-05-14T10:13:18.173Z,1.90
2023-05-14T10:14:18.193Z,1.30
2023-05-14T10:15:18.155Z,1.70
2023-05-14T10:16:18.169Z,2.70
2023-05-14T10:17:18.420Z,1.70
2023-05-14T10:18:18.244Z,1.60
2023-05-14T10:19:18.167Z,1.90
2023-05-14T10:20:18.110Z,2.70
2023-05-14T10:21:18.065Z,5.60
2023-05-14T10:22:18.064Z,1.90
2023-05-14T10:23:18.058Z,1.50
2023-05-14T10:24:18.580Z,3.60
2023-05-14T10:25:18.070Z,1.40
2023-05-14T10:26:18.030Z,3.10
2023-05-14T10:27:18.003Z,1.80
2023-05-14T10:28:17.989Z,1.80
2023-05-14T10:29:18.016Z,3.80
2023-05-14T10:30:18.000Z,4.00
2023-05-14T10:31:18.063Z,2.10
2023-05-14T10:32:17.959Z,3.00
2023-05-14T10:33:17.934Z,3.50
2023-05-14T10:34:17.931Z,1.60
2023-05-14T10:35:17.937Z,2.80
2023-05-14T10:36:17.907Z,2.20
2023-05-14T10:37:17.903Z,1.90
2023-05-14T10:38:17.906Z,2.00
2023-05-14T10:39:17.868Z,1.70
2023-05-14T10:40:18.534Z,5.10
2023-05-14T10:41:18.125Z,2.80
2023-05-14T10:42:18.500Z,4.40
2023-05-14T10:43:17.864Z,1.80
2023-05-14T10:44:18.508Z,2.50
2023-05-14T10:45:17.849Z,2.60
2023-05-14T10:46:18.621Z,1.30
2023-05-14T10:47:17.796Z,1.80
2023-05-14T10:48:17.830Z,1.60
2023-05-14T10:49:28.266Z,1.60
2023-05-14T10:50:17.868Z,1.70
2023-05-14T10:51:18.651Z,2.30
2023-05-14T10:52:17.733Z,2.60
2023-05-14T10:53:17.761Z,2.50
2023-05-14T10:54:17.711Z,3.00
2023-05-14T10:55:17.720Z,3.10
2023-05-14T10:56:18.509Z,2.60
2023-05-14T10:57:17.685Z,2.10
2023-05-14T10:58:18.584Z,2.60
2023-05-14T10:59:17.683Z,2.20
2023-05-14T11:00:17.667Z,2.50
2023-05-14T11:01:17.715Z,1.70
2023-05-14T11:02:17.699Z,2.00
2023-05-14T11:03:18.428Z,1.50
2023-05-14T11:04:17.688Z,1.70
2023-05-14T11:05:18.521Z,2.10
2023-05-14T11:06:17.597Z,1.90
2023-05-14T11:07:17.688Z,2.00
2023-05-14T11:08:17.589Z,1.50
2023-05-14T11:09:17.579Z,2.50
2023-05-14T11:10:17.626Z,2.10
2023-05-14T11:11:17.542Z,2.00
2023-05-14T11:12:17.560Z,2.10
2023-05-14T11:13:17.546Z,2.10
2023-05-14T11:14:17.527Z,2.40
2023-05-14T11:15:17.527Z,2.00
2023-05-14T11:16:23.287Z,2.10
2023-05-14T11:17:17.586Z,1.20
2023-05-14T11:18:17.514Z,1.40
2023-05-14T11:19:17.562Z,1.80
2023-05-14T11:20:17.531Z,2.90
2023-05-14T11:21:17.476Z,1.50
2023-05-14T11:22:18.042Z,1.80
2023-05-14T11:23:17.442Z,3.20
2023-05-14T11:24:18.106Z,2.30
2023-05-14T11:25:17.402Z,2.10
2023-05-14T11:26:18.303Z,1.80
2023-05-14T11:27:17.368Z,2.00
2023-05-14T11:28:17.406Z,2.00
2023-05-14T11:29:18.020Z,4.10
2023-05-14T11:30:17.558Z,2.60
2023-05-14T11:31:17.372Z,4.50
2023-05-14T11:32:17.327Z,4.00
2023-05-14T11:33:17.362Z,1.80
2023-05-14T11:34:17.306Z,3.60
2023-05-14T11:35:17.287Z,1.60
2023-05-14T11:36:18.625Z,1.80
2023-05-14T11:37:17.273Z,4.80
2023-05-14T11:38:17.283Z,4.50
2023-05-14T11:39:17.256Z,2.00
2023-05-14T11:40:17.336Z,3.70
2023-05-14T11:41:17.268Z,2.70
2023-05-14T11:42:17.232Z,1.60
2023-05-14T11:43:17.252Z,1.80
2023-05-14T11:44:17.198Z,3.70
2023-05-14T11:45:17.210Z,3.60
2023-05-14T11:46:17.284Z,1.80
2023-05-14T11:47:17.226Z,2.40
2023-05-14T11:48:17.184Z,2.10
2023-05-14T11:49:17.182Z,2.20
2023-05-14T11:50:17.164Z,3.50
2023-05-14T11:51:17.204Z,6.10
2023-05-14T11:52:17.150Z,4.90
2023-05-14T11:53:17.131Z,3.50
2023-05-14T11:54:17.126Z,4.90
2023-05-14T11:55:17.104Z,3.40
2023-05-14T11:56:17.096Z,6.80
2023-05-14T11:57:17.130Z,2.30
2023-05-14T11:58:17.079Z,3.30
2023-05-14T11:59:17.158Z,3.50
2023-05-14T12:00:17.038Z,2.60
2023-05-14T12:01:17.038Z,2.60
2023-05-14T12:02:17.048Z,2.60
2023-05-14T12:03:17.182Z,3.10
2023-05-14T12:04:17.044Z,2.10
2023-05-14T12:05:16.988Z,3.20
2023-05-14T12:06:16.967Z,5.70
2023-05-14T12:07:16.963Z,2.20
2023-05-14T12:08:16.974Z,2.40
2023-05-14T12:09:16.975Z,1.90
2023-05-14T12:10:16.924Z,1.80
2023-05-14T12:11:16.918Z,4.40
2023-05-14T12:12:16.913Z,3.30
2023-05-14T12:13:16.915Z,2.60
2023-05-14T12:14:16.918Z,2.40
2023-05-14T12:15:16.891Z,1.90
2023-05-14T12:16:16.932Z,2.60
2023-05-14T12:17:16.870Z,2.30
2023-05-14T12:18:23.866Z,2.40
2023-05-14T12:19:16.914Z,2.40
2023-05-14T12:20:16.819Z,2.00
2023-05-14T12:21:16.831Z,1.60
2023-05-14T12:22:16.814Z,2.00
2023-05-14T12:23:16.853Z,2.40
2023-05-14T12:24:16.796Z,3.70
2023-05-14T12:25:16.813Z,1.80
2023-05-14T12:26:16.762Z,2.70
2023-05-14T12:27:16.751Z,1.50
2023-05-14T12:28:16.741Z,1.80
2023-05-14T12:29:16.742Z,1.50
2023-05-14T12:30:21.847Z,2.00
2023-05-14T12:31:16.790Z,2.30
2023-05-14T12:32:17.546Z,2.10
2023-05-14T12:33:16.696Z,1.80
2023-05-14T12:34:16.687Z,2.80
2023-05-14T12:35:16.675Z,2.10
2023-05-14T12:36:21.883Z,2.20
2023-05-14T12:37:16.659Z,2.50
2023-05-14T12:38:16.645Z,1.60
2023-05-14T12:39:16.633Z,2.80
2023-05-14T12:40:16.621Z,6.00
2023-05-14T12:41:16.615Z,2.00
2023-05-14T12:42:16.639Z,3.10
2023-05-14T12:43:16.596Z,1.80
2023-05-14T12:44:16.724Z,2.90
2023-05-14T12:45:16.651Z,2.40
2023-05-14T12:46:19.636Z,1.90
2023-05-14T12:47:16.591Z,2.30
2023-05-14T12:48:16.569Z,2.10
2023-05-14T12:49:16.534Z,2.30
2023-05-14T12:50:16.553Z,1.90
2023-05-14T12:51:16.521Z,3.40
2023-05-14T12:52:25.941Z,3.40
2023-05-14T12:53:16.526Z,1.40
2023-05-14T12:54:16.481Z,1.70
2023-05-14T12:55:16.485Z,1.50
2023-05-14T12:56:16.461Z,1.90
2023-05-14T12:57:16.460Z,1.30
2023-05-14T12:58:16.454Z,1.80
2023-05-14T12:59:16.436Z,1.50
2023-05-14T13:00:16.422Z,1.10
2023-05-14T13:01:16.479Z,1.30
2023-05-14T13:02:17.447Z,1.80
2023-05-14T13:03:16.464Z,1.30
2023-05-14T13:04:16.440Z,2.00
2023-05-14T13:05:16.372Z,2.50
2023-05-14T13:06:16.355Z,1.80
2023-05-14T13:07:16.353Z,5.00
2023-05-14T13:08:16.363Z,1.40
2023-05-14T13:09:16.370Z,1.70
2023-05-14T13:10:16.361Z,2.20
2023-05-14T13:11:16.323Z,1.70
2023-05-14T13:12:16.307Z,1.20